Time;durP1;ratioP1;P1;durP2;ratioP2;P2;SDS_P1;SDS_P2;PMS_P1;PMS_P2;Temp;Humidity;BMP_temperature;BMP_pressure;BME280_temperature;BME280_humidity;BME280_pressure;Samples;Min_cycle;Max_cycle;Signal;HPM_P1;HPM_P2
2023/04/30 00:01:53;;;;;;;17.63;9.23;;;5.90;99.90;;;;;;5023878;28;20040;-68
2023/04/30 00:04:18;;;;;;;23.60;10.32;;;5.90;99.90;;;;;;5011156;28;20107;-69
2023/04/30 00:06:44;;;;;;;18.25;9.95;;;5.90;99.90;;;;;;5027749;28;20093;-69
2023/04/30 00:09:10;;;;;;;19.67;9.98;;;5.90;99.90;;;;;;5011226;28;20143;-68
2023/04/30 00:11:36;;;;;;;18.83;9.15;;;5.80;99.90;;;;;;5024275;28;20218;-68
2023/04/30 00:14:02;;;;;;;14.60;9.15;;;5.70;99.90;;;;;;5010113;28;20127;-69
2023/04/30 00:16:28;;;;;;;14.57;8.55;;;5.70;99.90;;;;;;5009729;28;20116;-68
2023/04/30 00:18:53;;;;;;;16.52;9.75;;;5.60;99.90;;;;;;5011061;28;20048;-68
2023/04/30 00:21:19;;;;;;;20.42;9.85;;;5.60;99.90;;;;;;5026252;28;20389;-68
2023/04/30 00:23:45;;;;;;;17.40;11.18;;;5.60;99.90;;;;;;5026149;28;20110;-69
2023/04/30 00:26:10;;;;;;;19.23;9.80;;;5.60;99.90;;;;;;5045156;28;20045;-67
2023/04/30 00:28:36;;;;;;;17.10;10.45;;;5.60;99.90;;;;;;5024506;28;20040;-68
2023/04/30 00:31:05;;;;;;;21.38;12.02;;;5.60;99.90;;;;;;5045650;28;20079;-68
2023/04/30 00:33:31;;;;;;;17.92;10.55;;;5.60;99.90;;;;;;5028114;28;20048;-68
2023/04/30 00:35:57;;;;;;;18.50;11.02;;;5.60;99.90;;;;;;5011039;28;20037;-68
2023/04/30 00:38:23;;;;;;;15.50;10.70;;;5.60;99.90;;;;;;4992958;28;20040;-67
2023/04/30 00:40:49;;;;;;;20.65;11.75;;;5.50;99.90;;;;;;5009818;28;20045;-68
2023/04/30 00:43:14;;;;;;;22.52;11.65;;;5.50;99.90;;;;;;5011329;28;20041;-68
2023/04/30 00:45:40;;;;;;;21.67;11.18;;;5.50;99.90;;;;;;5010447;28;20413;-68
2023/04/30 00:48:06;;;;;;;17.95;10.57;;;5.50;99.90;;;;;;5027356;28;20049;-68
2023/04/30 00:50:35;;;;;;;19.83;11.18;;;5.50;99.90;;;;;;5027470;28;20033;-68
2023/04/30 00:53:02;;;;;;;17.30;10.00;;;5.50;99.90;;;;;;5027744;28;20494;-68
2023/04/30 00:55:27;;;;;;;18.40;10.05;;;5.40;99.90;;;;;;5011941;28;20103;-69
2023/04/30 00:57:54;;;;;;;14.43;9.80;;;5.40;99.90;;;;;;5027595;28;20174;-68
2023/04/30 01:00:20;;;;;;;14.48;9.13;;;5.30;99.90;;;;;;5010747;28;20040;-68
2023/04/30 01:02:47;;;;;;;19.85;9.65;;;5.20;99.90;;;;;;5011021;28;20456;-68
2023/04/30 01:05:14;;;;;;;17.42;8.88;;;5.10;99.90;;;;;;5009486;28;20099;-69
2023/04/30 01:07:45;;;;;;;15.38;9.05;;;5.10;99.90;;;;;;5010965;28;20068;-69
2023/04/30 01:10:15;;;;;;;19.05;10.10;;;5.10;99.90;;;;;;5026199;28;20041;-68
2023/04/30 01:12:46;;;;;;;17.05;9.07;;;5.00;99.90;;;;;;5029459;28;20052;-68
2023/04/30 01:15:33;;;;;;;17.08;9.75;;;5.00;99.90;;;;;;5030747;28;20037;-68
2023/04/30 01:18:28;;;;;;;16.63;8.82;;;5.00;99.90;;;;;;5014350;28;20124;-68
2023/04/30 01:21:01;;;;;;;15.98;8.70;;;4.90;99.90;;;;;;5013470;28;20037;-68
2023/04/30 01:23:45;;;;;;;;;;;4.90;99.90;;;;;;5031235;28;20051;-68
2023/04/30 01:26:47;;;;;;;22.80;10.07;;;4.90;99.90;;;;;;5047137;28;19917;-68
2023/04/30 01:29:19;;;;;;;17.30;10.95;;;4.80;99.90;;;;;;5029260;28;20098;-68
2023/04/30 01:31:45;;;;;;;21.17;10.55;;;4.80;99.90;;;;;;5030931;28;20182;-68
2023/04/30 01:34:11;;;;;;;19.60;11.80;;;4.80;99.90;;;;;;5032186;28;20120;-68
2023/04/30 01:37:04;;;;;;;23.10;10.52;;;4.80;99.90;;;;;;5030926;28;20050;-69
2023/04/30 01:39:37;;;;;;;14.85;10.00;;;4.70;99.90;;;;;;5028570;28;20099;-68
2023/04/30 01:42:02;;;;;;;20.75;10.70;;;4.70;99.90;;;;;;5015699;28;20044;-69
2023/04/30 01:44:37;;;;;;;15.65;9.77;;;4.60;99.90;;;;;;5029032;28;20386;-68
2023/04/30 01:47:09;;;;;;;18.25;9.88;;;4.60;99.90;;;;;;5048409;28;20064;-68
2023/04/30 01:49:41;;;;;;;18.33;10.07;;;4.60;99.90;;;;;;5029525;28;20485;-68
2023/04/30 01:52:30;;;;;;;17.20;9.93;;;4.60;99.90;;;;;;5030682;28;20044;-68
2023/04/30 01:55:19;;;;;;;23.88;11.32;;;4.60;99.90;;;;;;5030390;28;20049;-68
2023/04/30 01:57:59;;;;;;;17.38;10.70;;;4.50;99.90;;;;;;5028615;28;20766;-68
2023/04/30 02:00:26;;;;;;;18.90;11.23;;;4.60;99.90;;;;;;5028183;28;20241;-69
2023/04/30 02:02:52;;;;;;;24.48;11.38;;;4.50;99.90;;;;;;5030974;28;20041;-68
2023/04/30 02:05:18;;;;;;;25.58;11.52;;;4.50;99.90;;;;;;5030198;28;20037;-69
2023/04/30 02:07:47;;;;;;;24.15;10.38;;;4.50;99.90;;;;;;5013992;28;20065;-68
2023/04/30 02:10:13;;;;;;;17.92;9.73;;;4.40;99.90;;;;;;5028111;28;20044;-68
2023/04/30 02:12:40;;;;;;;19.08;10.70;;;4.30;99.90;;;;;;5029951;28;20033;-68
2023/04/30 02:15:06;;;;;;;21.00;10.48;;;4.30;99.90;;;;;;5013587;28;20087;-68
2023/04/30 02:17:32;;;;;;;18.42;10.43;;;4.20;99.90;;;;;;5013747;28;20406;-68
2023/04/30 02:19:58;;;;;;;21.55;12.48;;;4.20;99.90;;;;;;5030478;28;20033;-68
2023/04/30 02:22:24;;;;;;;19.65;10.73;;;4.10;99.90;;;;;;5014608;28;20041;-68
2023/04/30 02:24:52;;;;;;;16.60;10.30;;;4.10;99.90;;;;;;5029898;28;20049;-69
2023/04/30 02:27:19;;;;;;;15.43;10.35;;;4.00;99.90;;;;;;5026295;28;20037;-68
2023/04/30 02:29:45;;;;;;;19.50;11.30;;;4.00;99.90;;;;;;5028781;28;20037;-68
2023/04/30 02:32:11;;;;;;;21.42;11.75;;;3.90;99.90;;;;;;5030745;28;20036;-68
2023/04/30 02:34:36;;;;;;;20.90;11.10;;;3.90;99.90;;;;;;5014190;28;20398;-69
2023/04/30 02:37:02;;;;;;;16.48;10.27;;;3.90;99.90;;;;;;5029853;28;20029;-68
2023/04/30 02:39:28;;;;;;;17.60;10.23;;;3.90;99.90;;;;;;5028230;28;20040;-68
2023/04/30 02:41:53;;;;;;;15.70;9.88;;;3.90;99.90;;;;;;4995782;28;20433;-68
2023/04/30 02:44:19;;;;;;;22.20;11.75;;;3.90;99.90;;;;;;5011991;28;20075;-69
2023/04/30 02:46:45;;;;;;;21.27;11.65;;;3.90;99.90;;;;;;5030212;28;20457;-69
2023/04/30 02:49:10;;;;;;;19.98;11.18;;;3.90;99.90;;;;;;5013866;28;20394;-68
2023/04/30 02:51:36;;;;;;;24.63;10.98;;;3.80;99.90;;;;;;5028905;28;20040;-69
2023/04/30 02:54:02;;;;;;;17.35;10.25;;;3.70;99.90;;;;;;4995827;28;20517;-68
2023/04/30 02:56:28;;;;;;;20.50;9.82;;;3.80;99.90;;;;;;5029674;28;20035;-69
2023/04/30 02:58:53;;;;;;;17.20;9.88;;;3.70;99.90;;;;;;5014270;28;20106;-68
2023/04/30 03:01:19;;;;;;;18.48;10.43;;;3.70;99.90;;;;;;5013478;28;20038;-68
2023/04/30 03:03:45;;;;;;;17.52;9.27;;;3.60;99.90;;;;;;5016259;28;20513;-68
2023/04/30 03:06:10;;;;;;;16.33;9.88;;;3.70;99.90;;;;;;5029344;28;20110;-69
2023/04/30 03:08:36;;;;;;;22.52;10.70;;;3.60;99.90;;;;;;4996558;28;20490;-68
2023/04/30 03:11:02;;;;;;;15.60;9.30;;;3.60;99.90;;;;;;5014631;28;20419;-68
2023/04/30 03:13:28;;;;;;;19.27;9.90;;;3.60;99.90;;;;;;5028767;28;20122;-68
2023/04/30 03:15:58;;;;;;;24.08;12.23;;;3.60;99.90;;;;;;5013103;28;20068;-68
2023/04/30 03:18:24;;;;;;;85.05;16.38;;;3.60;99.90;;;;;;5008765;28;20033;-68
2023/04/30 03:20:50;;;;;;;35.10;15.50;;;3.60;99.90;;;;;;5012383;28;20033;-68
2023/04/30 03:23:15;;;;;;;49.17;16.05;;;3.70;99.90;;;;;;5029216;28;20037;-68
2023/04/30 03:25:41;;;;;;;25.30;13.77;;;3.70;99.90;;;;;;5010389;28;20041;-68
2023/04/30 03:28:07;;;;;;;34.60;14.40;;;3.70;99.90;;;;;;5028099;28;20037;-68
2023/04/30 03:30:33;;;;;;;26.10;13.70;;;3.60;99.90;;;;;;5029461;28;20037;-68
2023/04/30 03:32:58;;;;;;;34.80;13.68;;;3.60;99.90;;;;;;5011261;28;20127;-68
2023/04/30 03:35:24;;;;;;;18.75;11.88;;;3.60;99.90;;;;;;5012942;28;20029;-68
2023/04/30 03:37:50;;;;;;;92.20;17.30;;;3.60;99.90;;;;;;5029791;28;20398;-69
2023/04/30 03:40:16;;;;;;;80.80;15.43;;;3.60;99.90;;;;;;5027594;28;20393;-69
2023/04/30 03:42:41;;;;;;;21.88;12.85;;;3.50;99.90;;;;;;5044883;28;20052;-68
2023/04/30 03:45:07;;;;;;;35.78;13.55;;;3.50;99.90;;;;;;5028255;28;20041;-69
2023/04/30 03:47:34;;;;;;;62.10;15.15;;;3.50;99.90;;;;;;5026759;28;20067;-69
2023/04/30 03:50:01;;;;;;;28.38;12.50;;;3.50;99.90;;;;;;5028155;28;20259;-69
2023/04/30 03:52:26;;;;;;;85.88;14.73;;;3.40;99.90;;;;;;4994057;28;20080;-69
2023/04/30 03:54:52;;;;;;;130.02;17.33;;;3.40;99.90;;;;;;5028422;28;20494;-69
2023/04/30 03:57:18;;;;;;;239.55;24.05;;;3.40;99.90;;;;;;5028870;28;20545;-69
2023/04/30 03:59:44;;;;;;;194.95;19.45;;;3.40;99.90;;;;;;5027301;28;20072;-69
2023/04/30 04:02:09;;;;;;;169.52;22.80;;;3.30;99.90;;;;;;5010579;28;20601;-69
2023/04/30 04:04:35;;;;;;;252.25;21.92;;;3.30;99.90;;;;;;5027234;28;20123;-69
2023/04/30 04:07:02;;;;;;;442.98;32.97;;;3.30;99.90;;;;;;5009537;28;20049;-69
2023/04/30 04:09:28;;;;;;;108.40;14.15;;;3.20;99.90;;;;;;5028359;28;20115;-69
2023/04/30 04:11:54;;;;;;;215.45;22.48;;;3.20;99.90;;;;;;5010069;28;20076;-69
2023/04/30 04:14:20;;;;;;;78.90;14.88;;;3.20;99.90;;;;;;4994285;28;20111;-69
2023/04/30 04:16:46;;;;;;;26.35;10.93;;;3.20;99.90;;;;;;5027194;28;20036;-69
2023/04/30 04:19:12;;;;;;;98.45;17.90;;;3.20;99.90;;;;;;5028603;28;20029;-69
2023/04/30 04:21:38;;;;;;;52.83;13.48;;;3.20;99.90;;;;;;5028041;28;20048;-69
2023/04/30 04:24:07;;;;;;;71.78;14.98;;;3.10;99.90;;;;;;5029333;28;20040;-69
2023/04/30 04:26:36;;;;;;;37.55;11.25;;;3.20;99.90;;;;;;5010067;28;20114;-68
2023/04/30 04:29:07;;;;;;;49.78;13.15;;;3.10;99.90;;;;;;5044193;28;20535;-69
2023/04/30 04:31:33;;;;;;;20.80;10.10;;;3.20;99.90;;;;;;5009821;28;20048;-69
2023/04/30 04:34:01;;;;;;;36.05;12.15;;;3.10;99.90;;;;;;5028557;28;20040;-69
2023/04/30 04:36:27;;;;;;;14.13;9.40;;;3.10;99.90;;;;;;5027719;28;20075;-69
2023/04/30 04:38:54;;;;;;;15.40;9.98;;;3.10;99.90;;;;;;5028574;28;20044;-68
2023/04/30 04:41:21;;;;;;;15.02;9.35;;;3.10;99.90;;;;;;5028118;28;21445;-69
2023/04/30 04:43:47;;;;;;;14.50;9.80;;;3.20;99.90;;;;;;5025247;28;20102;-69
2023/04/30 04:46:15;;;;;;;13.73;9.85;;;3.20;99.90;;;;;;5027112;28;20041;-69
2023/04/30 04:48:41;;;;;;;12.55;9.45;;;3.30;99.90;;;;;;5027204;28;20041;-69
2023/04/30 04:51:08;;;;;;;13.82;9.60;;;3.30;99.90;;;;;;5028112;28;20049;-69
2023/04/30 04:53:35;;;;;;;14.80;10.73;;;3.40;99.90;;;;;;5012159;28;20037;-69
2023/04/30 04:56:01;;;;;;;16.65;12.20;;;3.50;99.90;;;;;;5025821;28;20117;-69
2023/04/30 04:58:27;;;;;;;15.25;10.68;;;3.60;99.90;;;;;;5027401;28;20116;-69
2023/04/30 05:00:53;;;;;;;19.55;11.98;;;3.80;99.90;;;;;;5009159;28;20084;-69
2023/04/30 05:03:19;;;;;;;20.33;12.07;;;4.00;99.90;;;;;;5027259;28;20563;-69
2023/04/30 05:05:45;;;;;;;19.27;11.93;;;4.00;99.90;;;;;;5010224;28;20060;-69
2023/04/30 05:08:12;;;;;;;21.25;12.23;;;4.10;99.90;;;;;;5011346;28;20482;-69
2023/04/30 05:10:37;;;;;;;21.50;11.70;;;4.20;99.90;;;;;;5009812;28;20048;-69
2023/04/30 05:13:03;;;;;;;20.00;12.00;;;4.30;99.90;;;;;;5027447;28;20045;-69
2023/04/30 05:15:29;;;;;;;16.27;11.07;;;4.30;99.90;;;;;;5010797;28;20033;-69
2023/04/30 05:17:55;;;;;;;16.92;10.90;;;4.40;99.90;;;;;;5027770;28;20047;-69
2023/04/30 05:20:21;;;;;;;18.88;10.98;;;4.50;99.90;;;;;;5009390;28;20413;-69
2023/04/30 05:22:47;;;;;;;19.55;11.48;;;4.60;99.90;;;;;;5025381;28;20041;-69
2023/04/30 05:25:12;;;;;;;20.48;11.10;;;4.60;99.90;;;;;;5011296;28;20119;-69
2023/04/30 05:27:38;;;;;;;19.27;11.85;;;4.70;99.90;;;;;;5010761;28;20037;-69
2023/04/30 05:30:04;;;;;;;19.73;10.88;;;4.70;99.90;;;;;;5009948;28;20099;-70
2023/04/30 05:32:30;;;;;;;18.17;9.45;;;4.70;99.90;;;;;;5011672;28;20040;-70
2023/04/30 05:34:56;;;;;;;20.67;9.98;;;4.70;99.90;;;;;;5010240;28;20029;-69
2023/04/30 05:37:21;;;;;;;15.35;10.02;;;4.70;99.90;;;;;;5010065;28;20035;-69
2023/04/30 05:39:48;;;;;;;19.95;10.15;;;4.70;99.90;;;;;;5009853;28;20482;-69
2023/04/30 05:42:13;;;;;;;17.98;9.85;;;4.80;99.90;;;;;;4991660;28;20045;-69
2023/04/30 05:44:40;;;;;;;15.63;9.35;;;4.80;99.90;;;;;;5026954;28;20116;-69
2023/04/30 05:47:06;;;;;;;17.80;9.88;;;4.90;99.90;;;;;;5026667;28;20040;-69
2023/04/30 05:49:32;;;;;;;14.60;9.27;;;4.90;99.90;;;;;;5026852;28;20045;-69
2023/04/30 05:51:57;;;;;;;14.18;9.43;;;5.00;99.90;;;;;;5020128;28;20095;-69
2023/04/30 05:54:23;;;;;;;13.73;9.23;;;5.00;99.90;;;;;;5010168;28;20498;-69
2023/04/30 05:56:49;;;;;;;13.95;8.93;;;5.10;99.90;;;;;;5026308;28;20144;-70
2023/04/30 05:59:14;;;;;;;20.40;10.30;;;5.10;99.90;;;;;;5012288;28;20039;-69
2023/04/30 06:01:40;;;;;;;14.52;8.80;;;5.20;99.90;;;;;;4995509;28;20399;-69
2023/04/30 06:04:08;;;;;;;19.92;10.50;;;5.30;99.90;;;;;;5029164;28;20036;-69
2023/04/30 06:06:34;;;;;;;16.02;9.32;;;5.40;99.90;;;;;;5025684;28;20053;-69
2023/04/30 06:09:00;;;;;;;15.35;8.95;;;5.50;99.90;;;;;;5026425;28;20393;-69
2023/04/30 06:11:26;;;;;;;15.05;9.07;;;5.60;99.90;;;;;;5026751;28;20494;-69
2023/04/30 06:13:52;;;;;;;20.63;9.00;;;5.70;99.90;;;;;;5010091;28;20056;-69
2023/04/30 06:16:18;;;;;;;17.60;9.18;;;5.70;99.90;;;;;;4989280;28;20045;-69
2023/04/30 06:18:44;;;;;;;11.63;8.07;;;5.90;99.90;;;;;;5023987;28;20076;-70
2023/04/30 06:21:10;;;;;;;18.08;7.53;;;6.00;99.90;;;;;;5011035;28;20595;-69
2023/04/30 06:23:36;;;;;;;15.98;6.93;;;6.10;99.90;;;;;;4993371;28;20045;-69
2023/04/30 06:26:02;;;;;;;11.63;6.40;;;6.20;99.90;;;;;;5026181;28;20140;-69
2023/04/30 06:28:28;;;;;;;20.65;6.88;;;6.30;99.90;;;;;;5010029;28;20193;-69
2023/04/30 06:30:54;;;;;;;15.52;6.40;;;6.50;99.90;;;;;;5007427;28;20037;-70
2023/04/30 06:33:20;;;;;;;14.73;6.50;;;6.60;99.90;;;;;;5010362;28;20044;-70
2023/04/30 06:35:46;;;;;;;14.75;6.30;;;6.70;99.90;;;;;;5026627;28;20037;-69
2023/04/30 06:38:13;;;;;;;15.00;5.70;;;6.80;99.90;;;;;;5024122;28;20498;-70
2023/04/30 06:40:38;;;;;;;10.10;5.28;;;6.90;99.90;;;;;;4993063;28;20036;-69
2023/04/30 06:43:04;;;;;;;12.60;6.47;;;7.00;99.90;;;;;;5005817;28;20046;-69
2023/04/30 06:45:30;;;;;;;12.10;5.60;;;7.20;99.90;;;;;;5025618;28;20041;-69
2023/04/30 06:47:58;;;;;;;14.95;5.22;;;7.30;99.90;;;;;;5024938;28;20561;-69
2023/04/30 06:50:25;;;;;;;12.90;4.97;;;7.40;99.90;;;;;;5025630;28;20045;-69
2023/04/30 06:52:50;;;;;;;10.63;4.22;;;7.40;99.90;;;;;;5028734;28;20053;-69
2023/04/30 06:55:16;;;;;;;13.98;4.22;;;7.60;99.90;;;;;;5006910;28;20159;-70
2023/04/30 06:57:42;;;;;;;11.68;3.53;;;7.70;99.90;;;;;;5031697;28;20038;-69
2023/04/30 07:00:09;;;;;;;9.38;4.25;;;7.80;99.90;;;;;;5025582;28;20037;-69
2023/04/30 07:02:34;;;;;;;17.90;4.45;;;8.00;99.90;;;;;;5023265;28;20065;-70
2023/04/30 07:05:00;;;;;;;9.68;3.85;;;8.00;99.90;;;;;;5012994;28;20080;-69
2023/04/30 07:07:26;;;;;;;9.82;4.03;;;8.20;99.90;;;;;;5026166;28;20146;-70
2023/04/30 07:09:52;;;;;;;14.88;4.28;;;8.40;99.90;;;;;;5023478;28;20052;-70
2023/04/30 07:12:19;;;;;;;11.25;3.90;;;8.70;99.90;;;;;;5009384;28;20045;-69
2023/04/30 07:14:45;;;;;;;11.63;3.67;;;8.90;99.90;;;;;;5027977;28;20041;-70
2023/04/30 07:17:11;;;;;;;11.95;3.85;;;9.00;99.90;;;;;;4983173;28;20030;-69
2023/04/30 07:19:36;;;;;;;12.93;4.00;;;9.00;99.90;;;;;;5030170;28;20037;-69
2023/04/30 07:22:02;;;;;;;11.38;4.03;;;9.20;99.90;;;;;;5012804;28;20529;-70
2023/04/30 07:24:28;;;;;;;12.20;3.95;;;9.40;99.90;;;;;;5030789;28;20079;-69
2023/04/30 07:26:54;;;;;;;11.90;4.20;;;9.90;99.90;;;;;;5029965;28;20049;-70
2023/04/30 07:29:20;;;;;;;7.82;4.00;;;10.60;99.90;;;;;;5029716;28;20060;-71
2023/04/30 07:31:45;;;;;;;9.27;4.20;;;11.50;99.90;;;;;;4994969;28;20052;-71
2023/04/30 07:34:12;;;;;;;12.57;4.15;;;12.40;99.90;;;;;;5013491;28;20045;-70
2023/04/30 07:36:38;;;;;;;14.70;4.75;;;13.30;99.90;;;;;;5030049;28;20037;-70
2023/04/30 07:39:04;;;;;;;9.15;3.85;;;13.90;99.90;;;;;;5012274;28;20080;-71
2023/04/30 07:41:31;;;;;;;6.43;3.03;;;14.70;99.90;;;;;;5029291;28;20044;-70
2023/04/30 07:43:56;;;;;;;13.57;3.65;;;15.10;99.90;;;;;;5030380;28;20072;-70
2023/04/30 07:46:24;;;;;;;7.70;3.58;;;15.40;99.90;;;;;;5030116;28;20068;-71
2023/04/30 07:48:49;;;;;;;11.85;3.38;;;15.50;99.90;;;;;;5032304;28;20034;-76
2023/04/30 07:51:15;;;;;;;16.10;3.88;;;15.50;99.90;;;;;;5028903;28;20107;-74
2023/04/30 07:53:41;;;;;;;10.40;3.70;;;15.90;99.90;;;;;;5013474;28;20227;-72
2023/04/30 07:56:07;;;;;;;8.80;3.58;;;16.00;99.40;;;;;;5012318;28;20064;-75
2023/04/30 07:58:33;;;;;;;12.13;3.30;;;16.20;99.10;;;;;;5029514;28;20041;-73
2023/04/30 08:00:59;;;;;;;9.32;3.20;;;16.50;98.30;;;;;;5005506;28;20029;-71
2023/04/30 08:03:25;;;;;;;10.07;3.10;;;16.80;96.90;;;;;;5026396;28;20045;-72
2023/04/30 08:05:51;;;;;;;19.27;4.25;;;17.30;97.80;;;;;;4988474;28;20052;-72
2023/04/30 08:08:17;;;;;;;9.35;3.38;;;17.60;95.90;;;;;;5010391;28;20053;-73
2023/04/30 08:10:43;;;;;;;10.18;3.72;;;17.40;95.10;;;;;;4992145;28;20403;-72
2023/04/30 08:13:09;;;;;;;9.75;4.05;;;16.90;93.90;;;;;;5007861;28;20053;-72
2023/04/30 08:15:36;;;;;;;10.32;3.30;;;17.00;94.40;;;;;;5011023;28;20041;-73
2023/04/30 08:18:02;;;;;;;13.00;3.55;;;17.30;95.20;;;;;;5011671;28;20037;-72
2023/04/30 08:20:28;;;;;;;7.30;3.25;;;17.20;93.90;;;;;;5022510;28;20080;-72
2023/04/30 08:22:54;;;;;;;15.10;3.60;;;17.30;94.00;;;;;;5009929;28;20116;-72
2023/04/30 08:25:19;;;;;;;12.18;3.15;;;17.60;94.80;;;;;;5011263;28;20033;-73
2023/04/30 08:27:45;;;;;;;10.38;3.25;;;17.90;92.50;;;;;;5009581;28;20041;-73
2023/04/30 08:30:11;;;;;;;9.00;3.50;;;18.10;94.00;;;;;;4981573;28;20095;-73
2023/04/30 08:32:37;;;;;;;7.88;3.00;;;17.60;91.90;;;;;;5012428;28;20041;-72
2023/04/30 08:35:07;;;;;;;9.13;3.50;;;17.70;93.00;;;;;;4996142;28;20076;-72
2023/04/30 08:37:33;;;;;;;7.60;3.42;;;17.70;91.10;;;;;;5027177;28;20073;-71
2023/04/30 08:39:59;;;;;;;10.18;3.65;;;17.70;91.80;;;;;;5022127;28;20041;-70
2023/04/30 08:42:30;;;;;;;10.93;3.33;;;17.90;92.50;;;;;;5023148;28;20091;-73
2023/04/30 08:44:59;;;;;;;9.38;3.33;;;17.90;91.00;;;;;;5020046;28;20045;-73
2023/04/30 08:47:25;;;;;;;8.77;3.45;;;17.70;92.10;;;;;;5007397;28;20517;-72
2023/04/30 08:49:52;;;;;;;8.80;3.28;;;17.40;91.70;;;;;;5023000;28;20069;-72
2023/04/30 08:52:18;;;;;;;8.38;3.30;;;17.30;91.20;;;;;;4989306;28;20042;-71
2023/04/30 08:54:45;;;;;;;7.07;2.70;;;16.90;91.00;;;;;;5002923;28;20037;-72
2023/04/30 08:57:10;;;;;;;8.32;3.25;;;16.80;91.50;;;;;;5006349;28;20066;-74
2023/04/30 08:59:36;;;;;;;11.07;2.75;;;16.70;91.40;;;;;;5023607;28;20033;-74
2023/04/30 09:02:02;;;;;;;7.80;2.85;;;16.40;91.30;;;;;;5023075;28;21179;-74
2023/04/30 09:04:28;;;;;;;7.57;3.00;;;16.20;92.40;;;;;;5007558;28;20554;-75
2023/04/30 09:07:00;;;;;;;7.13;2.70;;;16.10;92.20;;;;;;4989990;28;20060;-74
2023/04/30 09:09:30;;;;;;;8.07;2.92;;;15.60;91.40;;;;;;5023739;28;20049;-74
2023/04/30 09:12:18;;;;;;;7.60;2.70;;;15.60;92.20;;;;;;5007249;28;20041;-74
2023/04/30 09:15:04;;;;;;;8.63;2.70;;;15.10;91.50;;;;;;5026552;28;20037;-73
2023/04/30 09:17:31;;;;;;;7.90;3.17;;;15.10;92.40;;;;;;5008937;28;20038;-73
2023/04/30 09:20:26;;;;;;;11.93;3.30;;;14.90;93.00;;;;;;5027996;28;20042;-74
2023/04/30 09:23:07;;;;;;;7.60;3.42;;;14.80;93.40;;;;;;4995766;28;20087;-73
2023/04/30 09:25:41;;;;;;;16.55;3.75;;;14.60;93.60;;;;;;5011534;28;20033;-73
2023/04/30 09:28:11;;;;;;;11.13;3.03;;;14.40;93.70;;;;;;5011279;28;20060;-73
2023/04/30 09:30:38;;;;;;;13.80;3.30;;;14.40;94.00;;;;;;5011043;28;20045;-73
2023/04/30 09:33:04;;;;;;;6.90;2.92;;;14.40;94.10;;;;;;5007498;28;20053;-73
2023/04/30 09:35:42;;;;;;;11.35;2.50;;;14.40;92.80;;;;;;5009519;28;20045;-73
2023/04/30 09:38:28;;;;;;;6.38;2.88;;;14.50;93.50;;;;;;5027341;28;20088;-72
2023/04/30 09:40:54;;;;;;;5.70;2.55;;;14.80;93.60;;;;;;5025096;28;20052;-74
2023/04/30 09:43:20;;;;;;;8.90;2.53;;;15.00;92.70;;;;;;5028362;28;20034;-73
2023/04/30 09:45:48;;;;;;;10.77;3.10;;;15.40;93.50;;;;;;5026357;28;20459;-73
2023/04/30 09:48:23;;;;;;;9.40;2.97;;;15.80;93.10;;;;;;5009478;28;20610;-73
2023/04/30 09:50:50;;;;;;;5.55;2.40;;;16.30;93.20;;;;;;5027662;28;20145;-74
2023/04/30 09:53:16;;;;;;;9.93;3.15;;;16.80;92.80;;;;;;5026596;28;20068;-74
2023/04/30 09:55:44;;;;;;;9.32;2.80;;;17.10;91.80;;;;;;4992028;28;20048;-73
2023/04/30 09:58:12;;;;;;;8.77;3.15;;;17.40;91.60;;;;;;5010060;28;20038;-72
2023/04/30 10:00:38;;;;;;;11.35;4.07;;;17.60;91.80;;;;;;4995368;28;20029;-74
2023/04/30 10:03:14;;;;;;;6.57;2.70;;;17.80;91.30;;;;;;5009507;28;20556;-69
2023/04/30 10:05:47;;;;;;;7.95;3.45;;;17.90;90.60;;;;;;5025914;28;20112;-70
2023/04/30 10:08:33;;;;;;;13.32;3.40;;;17.90;90.70;;;;;;5009297;28;20388;-70
2023/04/30 10:11:02;;;;;;;7.88;2.90;;;18.40;90.70;;;;;;5025874;28;20107;-71
2023/04/30 10:13:32;;;;;;;10.15;3.00;;;18.30;90.30;;;;;;5007746;28;20534;-68
2023/04/30 10:16:03;;;;;;;8.98;2.88;;;18.00;87.60;;;;;;5030099;28;20518;-69
2023/04/30 10:18:34;;;;;;;6.63;2.70;;;17.50;87.70;;;;;;5022885;28;20044;-69
2023/04/30 10:21:09;;;;;;;7.70;2.78;;;17.40;88.80;;;;;;5030777;28;20491;-68
2023/04/30 10:23:36;;;;;;;8.45;2.92;;;17.40;88.50;;;;;;5013720;28;20037;-69
2023/04/30 10:26:03;;;;;;;8.25;2.60;;;17.40;88.90;;;;;;5010108;28;20685;-69
2023/04/30 10:28:31;;;;;;;6.50;3.10;;;17.10;87.50;;;;;;5008172;28;20045;-68
2023/04/30 10:30:57;;;;;;;7.25;3.30;;;17.50;90.30;;;;;;5008197;28;20060;-69
2023/04/30 10:33:56;;;;;;;7.55;3.05;;;18.10;90.50;;;;;;5008718;28;20045;-68
2023/04/30 10:36:54;;;;;;;7.15;3.10;;;18.40;86.40;;;;;;5025861;28;20033;-68
2023/04/30 10:39:21;;;;;;;9.00;3.47;;;17.90;86.30;;;;;;5025694;28;20371;-69
2023/04/30 10:41:47;;;;;;;4.10;2.45;;;17.40;86.90;;;;;;5008752;28;20506;-69
2023/04/30 10:44:15;;;;;;;10.70;2.80;;;17.10;88.30;;;;;;5008490;28;20384;-69
2023/04/30 10:46:41;;;;;;;6.57;3.15;;;16.90;89.30;;;;;;5023688;28;20111;-69
2023/04/30 10:49:07;;;;;;;4.50;3.17;;;16.90;89.80;;;;;;5024266;28;20042;-69
2023/04/30 10:51:50;;;;;;;8.10;3.00;;;17.20;90.30;;;;;;4993429;28;20033;-69
2023/04/30 10:54:26;;;;;;;4.78;2.80;;;17.40;90.00;;;;;;5025238;28;20037;-69
2023/04/30 10:56:52;;;;;;;5.72;3.05;;;17.60;90.20;;;;;;5013247;28;20037;-69
2023/04/30 10:59:18;;;;;;;5.72;2.80;;;17.60;89.20;;;;;;5028806;28;20450;-70
2023/04/30 11:02:02;;;;;;;6.65;3.20;;;17.40;89.60;;;;;;5029739;28;20559;-70
2023/04/30 11:04:28;;;;;;;8.43;2.90;;;17.30;90.80;;;;;;5019150;28;20124;-70
2023/04/30 11:07:01;;;;;;;9.07;3.15;;;17.40;90.40;;;;;;5008435;28;20141;-69
2023/04/30 11:09:38;;;;;;;5.18;3.08;;;17.60;90.40;;;;;;5025916;28;20064;-70
2023/04/30 11:12:09;;;;;;;5.45;3.05;;;17.50;90.70;;;;;;5025444;28;20045;-70
2023/04/30 11:14:42;;;;;;;6.32;3.60;;;17.40;88.50;;;;;;5023624;28;20036;-70
2023/04/30 11:17:20;;;;;;;7.70;3.30;;;17.40;89.30;;;;;;5024524;28;20095;-70
2023/04/30 11:19:50;;;;;;;8.38;3.30;;;17.30;90.10;;;;;;5023757;28;20406;-70
2023/04/30 11:22:18;;;;;;;5.70;2.80;;;17.30;90.60;;;;;;5027140;28;20045;-71
2023/04/30 11:25:02;;;;;;;6.60;2.88;;;17.20;88.90;;;;;;5024192;28;20491;-70
2023/04/30 11:27:30;;;;;;;5.95;2.78;;;17.30;89.00;;;;;;5023646;28;20522;-70
2023/04/30 11:29:57;;;;;;;4.05;2.53;;;17.40;89.90;;;;;;5007683;28;20099;-70
2023/04/30 11:32:26;;;;;;;7.65;3.60;;;17.40;90.60;;;;;;5008851;28;20124;-69
2023/04/30 11:34:53;;;;;;;5.18;2.40;;;17.30;88.90;;;;;;4993030;28;20073;-69
2023/04/30 11:37:23;;;;;;;6.80;2.80;;;17.30;90.40;;;;;;5009138;28;20029;-70
2023/04/30 11:39:49;;;;;;;4.90;2.80;;;17.20;90.60;;;;;;5023564;28;20037;-70
2023/04/30 11:42:19;;;;;;;7.43;2.85;;;17.30;90.90;;;;;;5025370;28;20422;-70
2023/04/30 11:44:45;;;;;;;5.78;3.00;;;17.50;90.80;;;;;;5025470;28;20041;-68
2023/04/30 11:47:14;;;;;;;5.93;3.10;;;17.60;91.10;;;;;;5024439;28;20044;-69
2023/04/30 11:49:43;;;;;;;5.03;2.40;;;17.70;90.60;;;;;;5024755;28;20256;-69
2023/04/30 11:52:11;;;;;;;7.38;3.17;;;17.80;90.80;;;;;;5008467;28;20037;-70
2023/04/30 11:54:37;;;;;;;6.25;2.60;;;17.70;90.20;;;;;;5007919;28;20049;-70
2023/04/30 11:57:04;;;;;;;9.60;3.40;;;17.30;88.80;;;;;;5006424;28;20120;-71
2023/04/30 11:59:31;;;;;;;7.97;2.67;;;17.30;90.30;;;;;;5023986;28;20029;-71
2023/04/30 12:01:57;;;;;;;6.03;3.15;;;17.20;89.80;;;;;;5023051;28;20037;-70
2023/04/30 12:04:23;;;;;;;6.57;3.42;;;17.20;90.70;;;;;;5024252;28;20040;-69
2023/04/30 12:06:49;;;;;;;6.30;3.40;;;17.30;90.60;;;;;;5022533;28;20096;-69
2023/04/30 12:09:15;;;;;;;6.30;3.35;;;17.30;90.20;;;;;;5007857;28;20095;-70
2023/04/30 12:11:41;;;;;;;4.82;2.90;;;17.50;90.40;;;;;;4991678;28;20041;-70
2023/04/30 12:14:10;;;;;;;6.32;3.22;;;17.60;90.60;;;;;;5023679;28;20049;-70
2023/04/30 12:16:51;;;;;;;5.25;3.20;;;17.70;90.30;;;;;;5008313;28;20474;-70
2023/04/30 12:19:23;;;;;;;4.63;3.05;;;17.70;88.70;;;;;;5021810;28;20507;-70
2023/04/30 12:21:50;;;;;;;7.15;3.17;;;18.00;90.30;;;;;;5022778;28;20041;-73
2023/04/30 12:24:18;;;;;;;5.72;3.10;;;18.10;89.30;;;;;;5008757;28;20120;-72
2023/04/30 12:26:45;;;;;;;7.35;3.60;;;18.10;89.10;;;;;;5021980;28;20045;-72
2023/04/30 12:29:16;;;;;;;8.27;3.67;;;18.30;90.20;;;;;;5023462;28;20120;-72
2023/04/30 12:31:44;;;;;;;5.27;3.30;;;18.20;89.60;;;;;;5007780;28;20315;-73
2023/04/30 12:34:12;;;;;;;5.75;3.05;;;18.20;91.10;;;;;;5021006;28;20041;-71
2023/04/30 12:36:42;;;;;;;5.90;2.72;;;18.40;90.60;;;;;;5022531;28;20033;-72
2023/04/30 12:39:14;;;;;;;5.20;2.83;;;18.50;90.40;;;;;;5023593;28;20054;-72
2023/04/30 12:41:48;;;;;;;6.07;3.15;;;18.90;89.80;;;;;;5000058;28;20557;-72
2023/04/30 12:44:23;;;;;;;4.80;2.80;;;18.80;87.00;;;;;;5006531;28;20034;-73
2023/04/30 12:46:55;;;;;;;4.57;2.58;;;18.90;85.90;;;;;;5019406;28;20399;-74
2023/04/30 12:49:26;;;;;;;4.75;2.60;;;18.60;88.10;;;;;;5022685;28;20033;-71